sensor_id;sensor_type;location;lat;lon;timestamp;pressure;altitude;pressure_sealevel;temperature;humidity
55456;BME280;63021;52.836;6.376;2023-03-20T00:01:21;101924.91;;;8.33;77.45
55456;BME280;63021;52.836;6.376;2023-03-20T00:03:48;101927.78;;;8.30;77.04
55456;BME280;63021;52.836;6.376;2023-03-20T00:06:15;101935.41;;;8.35;76.80
55456;BME280;63021;52.836;6.376;2023-03-20T00:08:42;101926.00;;;8.30;77.13
55456;BME280;63021;52.836;6.376;2023-03-20T00:11:33;101936.19;;;8.37;76.99
55456;BME280;63021;52.836;6.376;2023-03-20T00:14:12;101935.34;;;8.36;77.13
55456;BME280;63021;52.836;6.376;2023-03-20T00:16:43;101943.19;;;8.38;77.50
55456;BME280;63021;52.836;6.376;2023-03-20T00:19:14;101942.31;;;8.37;77.13
55456;BME280;63021;52.836;6.376;2023-03-20T00:21:41;101942.22;;;8.39;77.26
55456;BME280;63021;52.836;6.376;2023-03-20T00:24:07;101939.66;;;8.37;77.37
55456;BME280;63021;52.836;6.376;2023-03-20T00:26:34;101938.63;;;8.40;77.60
55456;BME280;63021;52.836;6.376;2023-03-20T00:29:02;101945.53;;;8.42;76.89
55456;BME280;63021;52.836;6.376;2023-03-20T00:31:29;101950.81;;;8.42;76.73
55456;BME280;63021;52.836;6.376;2023-03-20T00:33:57;101956.13;;;8.42;77.64
55456;BME280;63021;52.836;6.376;2023-03-20T00:36:25;101952.81;;;8.39;77.05
55456;BME280;63021;52.836;6.376;2023-03-20T00:38:51;101964.22;;;8.41;76.69
55456;BME280;63021;52.836;6.376;2023-03-20T00:43:51;101970.34;;;8.41;76.44
55456;BME280;63021;52.836;6.376;2023-03-20T00:46:17;101966.97;;;8.39;76.63
55456;BME280;63021;52.836;6.376;2023-03-20T00:48:43;101973.00;;;8.41;77.00
55456;BME280;63021;52.836;6.376;2023-03-20T00:51:09;101974.16;;;8.37;76.40
55456;BME280;63021;52.836;6.376;2023-03-20T00:53:35;101977.69;;;8.38;77.05
55456;BME280;63021;52.836;6.376;2023-03-20T00:56:01;101972.47;;;8.36;76.50
55456;BME280;63021;52.836;6.376;2023-03-20T00:58:26;101971.63;;;8.36;76.65
55456;BME280;63021;52.836;6.376;2023-03-20T01:00:52;101983.09;;;8.36;76.67
55456;BME280;63021;52.836;6.376;2023-03-20T01:03:21;101982.22;;;8.36;77.04
55456;BME280;63021;52.836;6.376;2023-03-20T01:05:47;101978.84;;;8.33;76.48
55456;BME280;63021;52.836;6.376;2023-03-20T01:10:43;101974.03;;;8.26;76.44
55456;BME280;63021;52.836;6.376;2023-03-20T01:13:16;101979.16;;;8.29;76.95
55456;BME280;63021;52.836;6.376;2023-03-20T01:15:43;101996.66;;;8.31;76.56
55456;BME280;63021;52.836;6.376;2023-03-20T01:18:12;101997.53;;;8.32;77.22
55456;BME280;63021;52.836;6.376;2023-03-20T01:20:38;101994.97;;;8.30;76.89
55456;BME280;63021;52.836;6.376;2023-03-20T01:23:03;102000.47;;;8.27;76.09
55456;BME280;63021;52.836;6.376;2023-03-20T01:25:29;102005.78;;;8.27;77.29
55456;BME280;63021;52.836;6.376;2023-03-20T01:27:55;101993.47;;;8.26;76.88
55456;BME280;63021;52.836;6.376;2023-03-20T01:30:24;102001.34;;;8.28;76.91
55456;BME280;63021;52.836;6.376;2023-03-20T01:32:51;101993.38;;;8.28;76.94
55456;BME280;63021;52.836;6.376;2023-03-20T01:35:20;101992.59;;;8.26;76.69
55456;BME280;63021;52.836;6.376;2023-03-20T01:37:46;101988.91;;;8.28;76.79
55456;BME280;63021;52.836;6.376;2023-03-20T01:40:30;101988.81;;;8.30;76.77
55456;BME280;63021;52.836;6.376;2023-03-20T01:42:57;101984.53;;;8.27;76.19
55456;BME280;63021;52.836;6.376;2023-03-20T01:45:28;101985.41;;;8.28;77.05
55456;BME280;63021;52.836;6.376;2023-03-20T01:47:55;101962.47;;;8.27;76.43
55456;BME280;63021;52.836;6.376;2023-03-20T01:50:32;101968.72;;;8.26;77.06
55456;BME280;63021;52.836;6.376;2023-03-20T01:53:08;101969.72;;;8.25;77.05
55456;BME280;63021;52.836;6.376;2023-03-20T01:55:37;101975.22;;;8.22;77.07
55456;BME280;63021;52.836;6.376;2023-03-20T01:58:07;101976.91;;;8.23;76.04
55456;BME280;63021;52.836;6.376;2023-03-20T02:00:34;101968.94;;;8.23;76.62
55456;BME280;63021;52.836;6.376;2023-03-20T02:03:01;101961.19;;;8.20;76.40
55456;BME280;63021;52.836;6.376;2023-03-20T02:05:28;101956.00;;;8.18;76.38
55456;BME280;63021;52.836;6.376;2023-03-20T02:08:18;101954.09;;;8.20;76.04
55456;BME280;63021;52.836;6.376;2023-03-20T02:10:47;101955.06;;;8.19;76.73
55456;BME280;63021;52.836;6.376;2023-03-20T02:13:14;101938.38;;;8.17;76.83
55456;BME280;63021;52.836;6.376;2023-03-20T02:18:21;101936.38;;;8.21;77.19
55456;BME280;63021;52.836;6.376;2023-03-20T02:26:58;101906.16;;;8.23;77.14
55456;BME280;63021;52.836;6.376;2023-03-20T02:29:56;101923.84;;;8.23;76.42
55456;BME280;63021;52.836;6.376;2023-03-20T02:45:57;101910.34;;;8.13;76.06
55456;BME280;63021;52.836;6.376;2023-03-20T02:54:04;101890.97;;;8.12;76.80
55456;BME280;63021;52.836;6.376;2023-03-20T02:59:18;101895.31;;;8.13;76.06
55456;BME280;63021;52.836;6.376;2023-03-20T03:01:53;101890.00;;;8.13;76.30
55456;BME280;63021;52.836;6.376;2023-03-20T03:04:25;101895.44;;;8.12;76.42
55456;BME280;63021;52.836;6.376;2023-03-20T03:06:54;101902.41;;;8.13;76.39
55456;BME280;63021;52.836;6.376;2023-03-20T03:09:27;101886.81;;;8.08;76.47
55456;BME280;63021;52.836;6.376;2023-03-20T03:12:09;101889.25;;;8.11;76.21
55456;BME280;63021;52.836;6.376;2023-03-20T03:14:45;101876.97;;;8.10;76.15
55456;BME280;63021;52.836;6.376;2023-03-20T03:17:12;101883.94;;;8.11;76.63
55456;BME280;63021;52.836;6.376;2023-03-20T03:19:41;101883.09;;;8.11;76.40
55456;BME280;63021;52.836;6.376;2023-03-20T03:22:08;101883.00;;;8.12;76.32
55456;BME280;63021;52.836;6.376;2023-03-20T03:24:36;101877.06;;;8.09;76.39
55456;BME280;63021;52.836;6.376;2023-03-20T03:27:08;101877.81;;;8.11;76.22
55456;BME280;63021;52.836;6.376;2023-03-20T03:29:38;101885.44;;;8.15;76.57
55456;BME280;63021;52.836;6.376;2023-03-20T03:32:06;101867.31;;;8.09;76.41
55456;BME280;63021;52.836;6.376;2023-03-20T03:34:32;101863.59;;;8.12;76.25
55456;BME280;63021;52.836;6.376;2023-03-20T03:37:06;101867.09;;;8.12;76.15
55456;BME280;63021;52.836;6.376;2023-03-20T03:40:18;101876.63;;;8.15;75.80
55456;BME280;63021;52.836;6.376;2023-03-20T03:42:47;101868.78;;;8.13;76.27
55456;BME280;63021;52.836;6.376;2023-03-20T03:48:27;101857.03;;;8.05;76.26
55456;BME280;63021;52.836;6.376;2023-03-20T03:51:01;101851.50;;;8.08;76.10
55456;BME280;63021;52.836;6.376;2023-03-20T03:53:35;101847.03;;;8.08;76.15
55456;BME280;63021;52.836;6.376;2023-03-20T03:56:05;101839.28;;;8.05;75.83
55456;BME280;63021;52.836;6.376;2023-03-20T03:58:39;101829.41;;;8.07;75.87
55456;BME280;63021;52.836;6.376;2023-03-20T04:01:08;101838.13;;;8.09;75.83
55456;BME280;63021;52.836;6.376;2023-03-20T04:03:40;101838.97;;;8.10;75.50
55456;BME280;63021;52.836;6.376;2023-03-20T04:06:10;101835.47;;;8.09;75.44
55456;BME280;63021;52.836;6.376;2023-03-20T04:08:39;101839.28;;;8.05;75.25
55456;BME280;63021;52.836;6.376;2023-03-20T04:11:04;101828.06;;;8.02;75.56
55456;BME280;63021;52.836;6.376;2023-03-20T04:13:30;101844.59;;;8.05;75.46
55456;BME280;63021;52.836;6.376;2023-03-20T04:15:56;101829.63;;;8.04;75.25
55456;BME280;63021;52.836;6.376;2023-03-20T04:18:21;101832.38;;;8.03;75.28
55456;BME280;63021;52.836;6.376;2023-03-20T04:20:47;101827.09;;;8.03;75.51
55456;BME280;63021;52.836;6.376;2023-03-20T04:23:13;101829.84;;;8.01;74.66
55456;BME280;63021;52.836;6.376;2023-03-20T04:25:39;101828.34;;;7.97;74.56
55456;BME280;63021;52.836;6.376;2023-03-20T04:28:05;101843.31;;;7.98;74.79
55456;BME280;63021;52.836;6.376;2023-03-20T04:30:31;101832.16;;;7.93;74.95
55456;BME280;63021;52.836;6.376;2023-03-20T04:32:56;101831.22;;;7.94;74.74
55456;BME280;63021;52.836;6.376;2023-03-20T04:35:22;101827.09;;;7.90;75.10
55456;BME280;63021;52.836;6.376;2023-03-20T04:37:47;101829.72;;;7.90;75.04
55456;BME280;63021;52.836;6.376;2023-03-20T04:40:13;101830.72;;;7.89;74.79
55456;BME280;63021;52.836;6.376;2023-03-20T04:42:38;101830.06;;;7.85;74.96
55456;BME280;63021;52.836;6.376;2023-03-20T04:45:05;101824.75;;;7.85;75.22
55456;BME280;63021;52.836;6.376;2023-03-20T04:47:31;101825.81;;;7.83;74.51
55456;BME280;63021;52.836;6.376;2023-03-20T04:49:56;101831.88;;;7.85;75.14
55456;BME280;63021;52.836;6.376;2023-03-20T04:52:22;101830.91;;;7.86;74.90
55456;BME280;63021;52.836;6.376;2023-03-20T04:54:47;101832.09;;;7.82;75.11
55456;BME280;63021;52.836;6.376;2023-03-20T04:57:12;101826.84;;;7.80;74.73
55456;BME280;63021;52.836;6.376;2023-03-20T04:59:38;101834.72;;;7.82;74.38
55456;BME280;63021;52.836;6.376;2023-03-20T05:02:03;101833.03;;;7.80;75.02
55456;BME280;63021;52.836;6.376;2023-03-20T05:04:28;101830.69;;;7.76;75.22
55456;BME280;63021;52.836;6.376;2023-03-20T05:06:54;101829.50;;;7.80;74.98
55456;BME280;63021;52.836;6.376;2023-03-20T05:09:20;101820.09;;;7.76;74.93
55456;BME280;63021;52.836;6.376;2023-03-20T05:11:46;101819.22;;;7.75;75.00
55456;BME280;63021;52.836;6.376;2023-03-20T05:14:11;101813.41;;;7.70;75.03
55456;BME280;63021;52.836;6.376;2023-03-20T05:16:37;101823.03;;;7.71;75.02
55456;BME280;63021;52.836;6.376;2023-03-20T05:19:03;101813.50;;;7.69;74.85
55456;BME280;63021;52.836;6.376;2023-03-20T05:21:28;101826.66;;;7.70;74.82
55456;BME280;63021;52.836;6.376;2023-03-20T05:23:54;101815.28;;;7.68;75.01
55456;BME280;63021;52.836;6.376;2023-03-20T05:26:19;101814.34;;;7.69;74.52
55456;BME280;63021;52.836;6.376;2023-03-20T05:28:45;101799.72;;;7.63;74.96
55456;BME280;63021;52.836;6.376;2023-03-20T05:31:10;101811.38;;;7.61;74.58
55456;BME280;63021;52.836;6.376;2023-03-20T05:33:36;101827.06;;;7.64;74.77
55456;BME280;63021;52.836;6.376;2023-03-20T05:36:02;101828.75;;;7.65;74.95
55456;BME280;63021;52.836;6.376;2023-03-20T05:38:28;101829.59;;;7.66;74.74
55456;BME280;63021;52.836;6.376;2023-03-20T05:40:57;101832.25;;;7.66;74.84
55456;BME280;63021;52.836;6.376;2023-03-20T05:43:23;101841.16;;;7.65;74.47
55456;BME280;63021;52.836;6.376;2023-03-20T05:45:48;101829.06;;;7.60;74.58
55456;BME280;63021;52.836;6.376;2023-03-20T05:48:14;101828.75;;;7.65;74.56
55456;BME280;63021;52.836;6.376;2023-03-20T05:50:39;101827.06;;;7.64;74.57
55456;BME280;63021;52.836;6.376;2023-03-20T05:53:05;101824.41;;;7.64;74.28
55456;BME280;63021;52.836;6.376;2023-03-20T05:55:31;101823.88;;;7.59;74.67
55456;BME280;63021;52.836;6.376;2023-03-20T05:57:57;101832.47;;;7.62;74.63
55456;BME280;63021;52.836;6.376;2023-03-20T06:00:22;101835.09;;;7.62;74.30
55456;BME280;63021;52.836;6.376;2023-03-20T06:02:48;101830.13;;;7.58;74.39
55456;BME280;63021;52.836;6.376;2023-03-20T06:05:13;101833.50;;;7.60;74.60
55456;BME280;63021;52.836;6.376;2023-03-20T06:07:39;101840.00;;;7.56;74.21
55456;BME280;63021;52.836;6.376;2023-03-20T06:10:05;101850.38;;;7.59;74.48
55456;BME280;63021;52.836;6.376;2023-03-20T06:12:30;101848.56;;;7.59;74.53
55456;BME280;63021;52.836;6.376;2023-03-20T06:14:55;101852.06;;;7.60;73.90
55456;BME280;63021;52.836;6.376;2023-03-20T06:17:21;101860.78;;;7.62;74.10
55456;BME280;63021;52.836;6.376;2023-03-20T06:19:46;101845.91;;;7.59;74.63
55456;BME280;63021;52.836;6.376;2023-03-20T06:22:11;101844.09;;;7.60;74.16
55456;BME280;63021;52.836;6.376;2023-03-20T06:24:37;101850.38;;;7.59;74.88
55456;BME280;63021;52.836;6.376;2023-03-20T06:27:03;101851.88;;;7.63;74.67
55456;BME280;63021;52.836;6.376;2023-03-20T06:29:28;101849.34;;;7.61;74.40
55456;BME280;63021;52.836;6.376;2023-03-20T06:31:53;101849.00;;;7.66;74.04
55456;BME280;63021;52.836;6.376;2023-03-20T06:34:19;101855.25;;;7.65;74.01
55456;BME280;63021;52.836;6.376;2023-03-20T06:36:45;101848.34;;;7.62;73.95
55456;BME280;63021;52.836;6.376;2023-03-20T06:39:11;101846.38;;;7.66;73.75
55456;BME280;63021;52.836;6.376;2023-03-20T06:41:37;101839.47;;;7.63;73.67
55456;BME280;63021;52.836;6.376;2023-03-20T06:44:03;101839.38;;;7.65;73.84
55456;BME280;63021;52.836;6.376;2023-03-20T06:46:28;101835.09;;;7.62;73.63
55456;BME280;63021;52.836;6.376;2023-03-20T06:48:54;101836.50;;;7.68;74.34
55456;BME280;63021;52.836;6.376;2023-03-20T06:51:20;101842.56;;;7.70;73.99
55456;BME280;63021;52.836;6.376;2023-03-20T06:53:45;101842.47;;;7.72;73.26
55456;BME280;63021;52.836;6.376;2023-03-20T06:56:10;101845.00;;;7.73;73.80
55456;BME280;63021;52.836;6.376;2023-03-20T06:58:36;101849.25;;;7.76;73.03
55456;BME280;63021;52.836;6.376;2023-03-20T07:01:07;101849.16;;;7.77;73.72
55456;BME280;63021;52.836;6.376;2023-03-20T07:03:33;101845.63;;;7.77;73.69
55456;BME280;63021;52.836;6.376;2023-03-20T07:05:59;101849.03;;;7.79;73.65
55456;BME280;63021;52.836;6.376;2023-03-20T07:08:25;101847.22;;;7.79;73.00
55456;BME280;63021;52.836;6.376;2023-03-20T07:10:50;101859.31;;;7.84;73.80
55456;BME280;63021;52.836;6.376;2023-03-20T07:13:16;101865.47;;;7.84;73.37
55456;BME280;63021;52.836;6.376;2023-03-20T07:15:41;101864.41;;;7.87;73.41
55456;BME280;63021;52.836;6.376;2023-03-20T07:18:07;101860.06;;;7.86;73.97
55456;BME280;63021;52.836;6.376;2023-03-20T07:20:33;101871.22;;;7.91;73.31
55456;BME280;63021;52.836;6.376;2023-03-20T07:22:58;101871.22;;;7.91;72.93
55456;BME280;63021;52.836;6.376;2023-03-20T07:25:23;101872.91;;;7.92;73.13
55456;BME280;63021;52.836;6.376;2023-03-20T07:27:49;101859.13;;;7.87;73.06
55456;BME280;63021;52.836;6.376;2023-03-20T07:30:16;101866.63;;;7.93;73.45
55456;BME280;63021;52.836;6.376;2023-03-20T07:32:43;101870.88;;;7.95;73.13
55456;BME280;63021;52.836;6.376;2023-03-20T07:35:08;101870.78;;;7.97;73.40
55456;BME280;63021;52.836;6.376;2023-03-20T07:37:34;101869.00;;;7.97;72.96
55456;BME280;63021;52.836;6.376;2023-03-20T07:39:59;101861.16;;;7.96;72.63
55456;BME280;63021;52.836;6.376;2023-03-20T07:42:25;101872.16;;;8.03;72.67
55456;BME280;63021;52.836;6.376;2023-03-20T07:44:51;101883.44;;;8.06;72.17
55456;BME280;63021;52.836;6.376;2023-03-20T07:47:16;101880.66;;;8.08;72.64
55456;BME280;63021;52.836;6.376;2023-03-20T07:49:42;101863.88;;;8.07;72.14
55456;BME280;63021;52.836;6.376;2023-03-20T07:52:08;101883.66;;;8.16;72.63
55456;BME280;63021;52.836;6.376;2023-03-20T07:54:33;101879.09;;;8.18;72.65
55456;BME280;63021;52.836;6.376;2023-03-20T07:56:59;101864.66;;;8.09;72.45
55456;BME280;63021;52.836;6.376;2023-03-20T07:59:25;101877.91;;;8.22;71.79
55456;BME280;63021;52.836;6.376;2023-03-20T08:01:51;101858.91;;;8.15;72.62
55456;BME280;63021;52.836;6.376;2023-03-20T08:04:16;101885.22;;;8.31;72.18
55456;BME280;63021;52.836;6.376;2023-03-20T08:06:44;101879.81;;;8.33;71.75
55456;BME280;63021;52.836;6.376;2023-03-20T08:09:09;101883.22;;;8.35;72.23
55456;BME280;63021;52.836;6.376;2023-03-20T08:11:34;101879.41;;;8.39;71.82
55456;BME280;63021;52.836;6.376;2023-03-20T08:14:00;101893.28;;;8.43;71.91
55456;BME280;63021;52.836;6.376;2023-03-20T08:16:26;101883.53;;;8.43;71.56
55456;BME280;63021;52.836;6.376;2023-03-20T08:18:52;101866.75;;;8.43;71.24
55456;BME280;63021;52.836;6.376;2023-03-20T08:21:20;101877.38;;;8.56;71.79
55456;BME280;63021;52.836;6.376;2023-03-20T08:23:45;101884.06;;;8.61;71.67
55456;BME280;63021;52.836;6.376;2023-03-20T08:26:11;101876.75;;;8.65;71.85
55456;BME280;63021;52.836;6.376;2023-03-20T08:28:36;101882.56;;;8.70;71.00
55456;BME280;63021;52.836;6.376;2023-03-20T08:31:06;101886.47;;;8.77;71.21
55456;BME280;63021;52.836;6.376;2023-03-20T08:33:32;101887.84;;;8.83;71.60
55456;BME280;63021;52.836;6.376;2023-03-20T08:35:57;101887.94;;;8.94;70.89
55456;BME280;63021;52.836;6.376;2023-03-20T08:38:23;101884.59;;;9.04;71.60
55456;BME280;63021;52.836;6.376;2023-03-20T08:40:48;101878.84;;;9.10;71.18
55456;BME280;63021;52.836;6.376;2023-03-20T08:43:14;101893.28;;;9.18;70.80
55456;BME280;63021;52.836;6.376;2023-03-20T08:45:39;101877.00;;;9.23;70.37
55456;BME280;63021;52.836;6.376;2023-03-20T08:48:05;101878.22;;;9.30;70.55
55456;BME280;63021;52.836;6.376;2023-03-20T08:50:30;101873.31;;;9.37;70.47
55456;BME280;63021;52.836;6.376;2023-03-20T08:52:56;101867.66;;;9.42;69.91
55456;BME280;63021;52.836;6.376;2023-03-20T08:55:21;101864.75;;;9.45;69.69
55456;BME280;63021;52.836;6.376;2023-03-20T08:57:47;101860.91;;;9.49;70.07
55456;BME280;63021;52.836;6.376;2023-03-20T09:00:13;101854.28;;;9.54;69.64
55456;BME280;63021;52.836;6.376;2023-03-20T09:02:40;101853.72;;;9.62;69.97
55456;BME280;63021;52.836;6.376;2023-03-20T09:05:06;101851.69;;;9.66;69.42
55456;BME280;63021;52.836;6.376;2023-03-20T09:07:32;101848.28;;;9.64;69.27
55456;BME280;63021;52.836;6.376;2023-03-20T09:09:57;101851.59;;;9.79;69.38
55456;BME280;63021;52.836;6.376;2023-03-20T09:12:22;101844.09;;;9.84;68.61
55456;BME280;63021;52.836;6.376;2023-03-20T09:14:48;101840.25;;;9.88;68.17
55456;BME280;63021;52.836;6.376;2023-03-20T09:17:13;101844.88;;;9.97;68.69
55456;BME280;63021;52.836;6.376;2023-03-20T09:19:39;101841.13;;;10.00;68.37
55456;BME280;63021;52.836;6.376;2023-03-20T09:22:09;101838.81;;;10.06;68.12
55456;BME280;63021;52.836;6.376;2023-03-20T09:24:36;101837.75;;;10.09;68.13
55456;BME280;63021;52.836;6.376;2023-03-20T09:27:01;101842.56;;;10.15;67.35
55456;BME280;63021;52.836;6.376;2023-03-20T09:29:27;101828.56;;;10.13;67.54
55456;BME280;63021;52.836;6.376;2023-03-20T09:31:52;101842.22;;;10.20;67.26
55456;BME280;63021;52.836;6.376;2023-03-20T09:34:18;101848.03;;;10.25;67.03
55456;BME280;63021;52.836;6.376;2023-03-20T09:36:44;101859.06;;;10.32;66.96
55456;BME280;63021;52.836;6.376;2023-03-20T09:39:09;101859.56;;;10.37;67.25
55456;BME280;63021;52.836;6.376;2023-03-20T09:41:35;101865.13;;;10.45;67.12
55456;BME280;63021;52.836;6.376;2023-03-20T09:49:48;101862.72;;;10.53;66.21
55456;BME280;63021;52.836;6.376;2023-03-20T09:52:37;101865.72;;;10.60;66.44
55456;BME280;63021;52.836;6.376;2023-03-20T09:55:20;101870.69;;;10.65;66.52
55456;BME280;63021;52.836;6.376;2023-03-20T09:57:56;101869.72;;;10.66;66.80
55456;BME280;63021;52.836;6.376;2023-03-20T10:00:26;101860.63;;;10.68;65.88
55456;BME280;63021;52.836;6.376;2023-03-20T10:02:57;101870.91;;;10.73;66.57
55456;BME280;63021;52.836;6.376;2023-03-20T10:05:25;101868.03;;;10.76;66.20
55456;BME280;63021;52.836;6.376;2023-03-20T10:07:53;101874.78;;;10.80;66.20
55456;BME280;63021;52.836;6.376;2023-03-20T10:10:28;101878.19;;;10.82;66.08
55456;BME280;63021;52.836;6.376;2023-03-20T10:13:07;101863.41;;;10.78;66.17
55456;BME280;63021;52.836;6.376;2023-03-20T10:15:56;101875.91;;;10.78;65.11
55456;BME280;63021;52.836;6.376;2023-03-20T10:18:26;101869.59;;;10.67;65.13
55456;BME280;63021;52.836;6.376;2023-03-20T10:23:43;101869.38;;;10.59;65.27
55456;BME280;63021;52.836;6.376;2023-03-20T10:26:14;101865.97;;;10.57;65.30
55456;BME280;63021;52.836;6.376;2023-03-20T10:28:59;101851.44;;;10.50;65.42
55456;BME280;63021;52.836;6.376;2023-03-20T10:42:27;101867.41;;;10.38;65.64
55456;BME280;63021;52.836;6.376;2023-03-20T10:47:47;101863.91;;;10.38;65.78
55456;BME280;63021;52.836;6.376;2023-03-20T10:50:22;101868.16;;;10.40;66.11
55456;BME280;63021;52.836;6.376;2023-03-20T10:52:54;101854.09;;;10.38;65.94
55456;BME280;63021;52.836;6.376;2023-03-20T10:55:27;101856.91;;;10.37;65.55
55456;BME280;63021;52.836;6.376;2023-03-20T10:58:22;101853.91;;;10.42;65.84
55456;BME280;63021;52.836;6.376;2023-03-20T11:00:48;101853.03;;;10.41;66.22
55456;BME280;63021;52.836;6.376;2023-03-20T11:03:27;101851.81;;;10.45;66.06
55456;BME280;63021;52.836;6.376;2023-03-20T11:06:00;101859.56;;;10.48;65.48
55456;BME280;63021;52.836;6.376;2023-03-20T11:08:34;101863.81;;;10.51;65.72
55456;BME280;63021;52.836;6.376;2023-03-20T11:11:02;101873.63;;;10.50;65.55
55456;BME280;63021;52.836;6.376;2023-03-20T11:15:54;101855.69;;;10.41;66.25
55456;BME280;63021;52.836;6.376;2023-03-20T11:18:23;101863.31;;;10.46;65.98
55456;BME280;63021;52.836;6.376;2023-03-20T11:20:56;101860.19;;;10.40;65.87
55456;BME280;63021;52.836;6.376;2023-03-20T11:23:27;101871.66;;;10.41;65.09
55456;BME280;63021;52.836;6.376;2023-03-20T11:25:59;101856.91;;;10.37;65.36
55456;BME280;63021;52.836;6.376;2023-03-20T11:28:40;101864.63;;;10.40;65.87
55456;BME280;63021;52.836;6.376;2023-03-20T11:33:41;101857.88;;;10.36;66.04
55456;BME280;63021;52.836;6.376;2023-03-20T11:36:18;101855.22;;;10.36;65.80
55456;BME280;63021;52.836;6.376;2023-03-20T11:38:45;101854.47;;;10.34;65.83
55456;BME280;63021;52.836;6.376;2023-03-20T11:41:41;101857.88;;;10.36;65.70
55456;BME280;63021;52.836;6.376;2023-03-20T11:44:31;101853.41;;;10.36;65.52
55456;BME280;63021;52.836;6.376;2023-03-20T11:47:17;101852.44;;;10.37;65.92
55456;BME280;63021;52.836;6.376;2023-03-20T11:52:26;101847.13;;;10.37;65.14
55456;BME280;63021;52.836;6.376;2023-03-20T11:54:55;101835.59;;;10.37;66.03
55456;BME280;63021;52.836;6.376;2023-03-20T11:59:54;101853.03;;;10.41;66.27
55456;BME280;63021;52.836;6.376;2023-03-20T12:02:22;101834.34;;;10.30;66.14
55456;BME280;63021;52.836;6.376;2023-03-20T12:04:49;101839.13;;;10.37;65.94
55456;BME280;63021;52.836;6.376;2023-03-20T12:07:28;101841.53;;;10.40;65.88
55456;BME280;63021;52.836;6.376;2023-03-20T12:10:09;101835.47;;;10.38;66.03
55456;BME280;63021;52.836;6.376;2023-03-20T12:12:47;101835.25;;;10.42;66.10
55456;BME280;63021;52.836;6.376;2023-03-20T12:15:36;101843.25;;;10.42;65.71
55456;BME280;63021;52.836;6.376;2023-03-20T12:18:12;101837.06;;;10.41;66.23
55456;BME280;63021;52.836;6.376;2023-03-20T12:21:02;101837.53;;;10.35;66.02
55456;BME280;63021;52.836;6.376;2023-03-20T12:23:42;101807.28;;;10.13;66.36
55456;BME280;63021;52.836;6.376;2023-03-20T12:26:31;101829.28;;;10.27;67.46
55456;BME280;63021;52.836;6.376;2023-03-20T12:29:19;101829.53;;;10.23;67.62
55456;BME280;63021;52.836;6.376;2023-03-20T12:32:13;101822.50;;;10.11;67.13
55456;BME280;63021;52.836;6.376;2023-03-20T12:37:09;101834.97;;;10.22;67.75
55456;BME280;63021;52.836;6.376;2023-03-20T12:39:41;101838.59;;;10.21;68.46
55456;BME280;63021;52.836;6.376;2023-03-20T12:45:24;101838.81;;;10.06;68.39
55456;BME280;63021;52.836;6.376;2023-03-20T12:51:05;101835.03;;;9.86;69.39
55456;BME280;63021;52.836;6.376;2023-03-20T12:53:58;101829.38;;;9.80;69.92
55456;BME280;63021;52.836;6.376;2023-03-20T13:01:55;101820.63;;;9.66;69.78
55456;BME280;63021;52.836;6.376;2023-03-20T13:12:15;101820.06;;;9.39;71.50
55456;BME280;63021;52.836;6.376;2023-03-20T13:17:23;101806.72;;;9.27;71.74
55456;BME280;63021;52.836;6.376;2023-03-20T13:28:21;101803.09;;;9.28;72.32
55456;BME280;63021;52.836;6.376;2023-03-20T13:31:05;101791.13;;;9.23;72.49
55456;BME280;63021;52.836;6.376;2023-03-20T13:39:38;101794.56;;;9.12;72.86
55456;BME280;63021;52.836;6.376;2023-03-20T13:42:11;101793.09;;;9.08;73.45
55456;BME280;63021;52.836;6.376;2023-03-20T13:44:40;101798.22;;;9.11;73.62
55456;BME280;63021;52.836;6.376;2023-03-20T13:47:17;101797.34;;;9.10;74.16
55456;BME280;63021;52.836;6.376;2023-03-20T13:49:59;101795.63;;;9.09;73.72
55456;BME280;63021;52.836;6.376;2023-03-20T13:52:41;101791.19;;;9.10;73.61
55456;BME280;63021;52.836;6.376;2023-03-20T14:01:17;101786.31;;;9.04;74.17
55456;BME280;63021;52.836;6.376;2023-03-20T14:03:47;101793.34;;;9.05;74.09
55456;BME280;63021;52.836;6.376;2023-03-20T14:08:47;101785.25;;;9.06;74.26
55456;BME280;63021;52.836;6.376;2023-03-20T14:13:50;101775.38;;;9.08;74.50
55456;BME280;63021;52.836;6.376;2023-03-20T14:16:17;101783.22;;;9.10;74.28
55456;BME280;63021;52.836;6.376;2023-03-20T14:18:47;101787.66;;;9.09;74.90
55456;BME280;63021;52.836;6.376;2023-03-20T14:21:17;101762.88;;;8.97;75.13
55456;BME280;63021;52.836;6.376;2023-03-20T14:23:47;101778.97;;;9.07;74.93
55456;BME280;63021;52.836;6.376;2023-03-20T14:26:27;101776.44;;;9.06;75.06
55456;BME280;63021;52.836;6.376;2023-03-20T14:31:35;101768.81;;;9.01;75.28
55456;BME280;63021;52.836;6.376;2023-03-20T14:37:04;101766.66;;;9.06;75.70
55456;BME280;63021;52.836;6.376;2023-03-20T14:47:50;101764.75;;;9.08;76.21
55456;BME280;63021;52.836;6.376;2023-03-20T14:50:25;101777.78;;;9.11;75.87
55456;BME280;63021;52.836;6.376;2023-03-20T14:55:32;101774.06;;;9.14;75.79
55456;BME280;63021;52.836;6.376;2023-03-20T15:01:03;101765.88;;;9.17;76.28
55456;BME280;63021;52.836;6.376;2023-03-20T15:03:31;101756.81;;;9.19;76.85
55456;BME280;63021;52.836;6.376;2023-03-20T15:05:59;101745.56;;;9.16;76.18
55456;BME280;63021;52.836;6.376;2023-03-20T15:08:32;101724.28;;;9.05;76.88
55456;BME280;63021;52.836;6.376;2023-03-20T15:11:04;101750.41;;;9.22;77.11
55456;BME280;63021;52.836;6.376;2023-03-20T15:13:34;101711.22;;;9.01;76.85
55456;BME280;63021;52.836;6.376;2023-03-20T15:16:12;101743.31;;;9.23;77.10
55456;BME280;63021;52.836;6.376;2023-03-20T15:18:49;101744.97;;;9.24;76.44
55456;BME280;63021;52.836;6.376;2023-03-20T15:21:17;101734.34;;;9.24;76.98
55456;BME280;63021;52.836;6.376;2023-03-20T15:23:44;101728.31;;;9.22;77.07
55456;BME280;63021;52.836;6.376;2023-03-20T15:26:12;101723.25;;;9.18;76.76
55456;BME280;63021;52.836;6.376;2023-03-20T15:28:39;101717.78;;;9.09;77.25
55456;BME280;63021;52.836;6.376;2023-03-20T15:31:05;101721.78;;;9.14;76.74